Clermont, KY (40110)

5:01 AM EDT on July 27, 2016 (GMT -0400)
Camp Crooked Creek | | Change Station

Elev 627 ft 37.89 °N, 85.65 °W | Updated 31 seconds ago

Mostly Cloudy
Mostly Cloudy
73.2 °F
Feels Like 73.2 °F
N
0.0
Wind Variable Wind from North
Gusts 0.0 mph

Today
High -- | Low -- °F
--% Chance of Precip.
Yesterday
High -- | Low -- °F
Precip. -- in
Pressure 29.96 in
Visibility 9.0 miles
Clouds Mostly Cloudy 25000 ft
Dew Point 73 °F
Humidity 100%
Rainfall 0.00 in
Snow Depth Not available.
6:42 AM 8:55 PM
Last Quarter, 45% visible
METAR KSDF 270856Z 10003KT 9SM BKN250 26/22 A2998 RMK AO2 SLP144 T02560222 55002
Pressure 29.96 in
Visibility 9.0 miles
Clouds Mostly Cloudy 25000 ft
Dew Point 73 °F
Humidity 100%
Rainfall 0.00 in
Snow Depth Not available.
6:42 AM 8:55 PM
Last Quarter, 45% visible
METAR KSDF 270856Z 10003KT 9SM BKN250 26/22 A2998 RMK AO2 SLP144 T02560222 55002

10-Day Weather Forecast

Almanac

Astronomy

Jul. 27, 2016 Rise Set
Actual Time
Civil Twilight
Nautical Twilight
Astronomical Twilight
Moon
Length of Visible Light
Length of Day
Tomorrow will be .
, % of the Moon is Illuminated

Today's Extremes

State Highs State Lows

Community

WunderPhotos

Upload Photos

1,927,818 photos uploaded!

WunderBlog® & News

Nearby

Air Quality

  Air Quality AQ Index Pollutant
Not available.

Snow Depth

Station Depth Elevation

Earthquake Activity

City Distance Mag. Time & Date
Minimum magnitude displayed is 2.5.

Coastal Water Temperatures

Place Temperature

Stations

Nearby Weather Stations

Station Location Temp. Windchill Dew Point Humidity Wind Precip. Elev Updated Type
                   

Watches & Warnings

There are currently no watches in effect.